Time;durP1;ratioP1;P1;durP2;ratioP2;P2;SDS_P1;SDS_P2;PMS_P1;PMS_P2;Temp;Humidity;BMP_temperature;BMP_pressure;BME280_temperature;BME280_humidity;BME280_pressure;Samples;Min_cycle;Max_cycle;Signal;HPM_P1;HPM_P2
2022/11/24 00:01:50;;;;;;;;;;;6.80;99.90;;;;;;5091101;28;19924;-78
2022/11/24 00:04:16;;;;;;;;;;;7.10;99.90;;;;;;5090067;28;19924;-78
2022/11/24 00:06:41;;;;;;;;;;;6.80;99.90;;;;;;5077047;28;19932;-79
2022/11/24 00:09:07;;;;;;;;;;;6.90;99.90;;;;;;5088342;28;19924;-78
2022/11/24 00:11:34;;;;;;;;;;;6.80;99.90;;;;;;5090093;28;20302;-78
2022/11/24 00:14:01;;;;;;;;;;;6.80;99.90;;;;;;5090318;28;19991;-78
2022/11/24 00:16:28;;;;;;;;;;;6.80;99.90;;;;;;5078176;28;20509;-79
2022/11/24 00:18:54;;;;;;;;;;;6.70;99.90;;;;;;5086851;28;19931;-78
2022/11/24 00:21:21;;;;;;;;;;;6.70;99.90;;;;;;5090692;28;20393;-78
2022/11/24 00:23:47;;;;;;;;;;;6.70;99.90;;;;;;5089178;28;20393;-78
2022/11/24 00:26:16;;;;;;;;;;;6.60;99.90;;;;;;5080549;28;19928;-78
2022/11/24 00:28:42;;;;;;;;;;;6.70;99.90;;;;;;5084764;28;19928;-78
2022/11/24 00:31:20;;;;;;;;;;;6.60;99.90;;;;;;5090261;28;19932;-78
2022/11/24 00:33:46;;;;;;;;;;;6.60;99.90;;;;;;5088630;28;20343;-80
2022/11/24 00:36:12;;;;;;;;;;;6.60;99.90;;;;;;5081329;28;19925;-80
2022/11/24 00:38:38;;;;;;;;;;;6.60;99.90;;;;;;5082701;28;19953;-78
2022/11/24 00:41:04;;;;;;;;;;;6.60;99.90;;;;;;5090904;28;19937;-78
2022/11/24 00:43:29;;;;;;;;;;;6.60;99.90;;;;;;5089069;28;19931;-79
2022/11/24 00:45:55;;;;;;;;;;;6.60;99.90;;;;;;5090668;28;19924;-78
2022/11/24 00:48:21;;;;;;;;;;;6.60;99.90;;;;;;5073804;28;19928;-79
2022/11/24 00:50:57;;;;;;;;;;;6.60;99.90;;;;;;5090849;28;19924;-78
2022/11/24 00:53:23;;;;;;;;;;;6.50;99.90;;;;;;5105200;28;19932;-79
2022/11/24 00:55:49;;;;;;;;;;;6.50;99.90;;;;;;5089863;28;19947;-79
2022/11/24 00:58:14;;;;;;;;;;;6.60;99.90;;;;;;5073363;28;20370;-78
2022/11/24 01:00:40;;;;;;;;;;;6.60;99.90;;;;;;5090147;28;19924;-79
2022/11/24 01:03:06;;;;;;;;;;;6.60;99.90;;;;;;5089135;28;19932;-78
2022/11/24 01:05:34;;;;;;;;;;;6.60;99.90;;;;;;5090556;28;19932;-79
2022/11/24 01:08:00;;;;;;;;;;;6.70;99.90;;;;;;5073793;28;19974;-78
2022/11/24 01:10:25;;;;;;;;;;;6.60;99.90;;;;;;5090001;28;19928;-78
2022/11/24 01:12:51;;;;;;;;;;;6.60;99.90;;;;;;5089488;28;19943;-78
2022/11/24 01:15:16;;;;;;;;;;;6.60;99.90;;;;;;5089405;28;19951;-78
2022/11/24 01:17:42;;;;;;;;;;;6.60;99.90;;;;;;5074114;28;19924;-78
2022/11/24 01:20:08;;;;;;;;;;;6.50;99.90;;;;;;5090418;28;19932;-78
2022/11/24 01:22:34;;;;;;;;;;;6.50;99.90;;;;;;5089492;28;19924;-78
2022/11/24 01:24:59;;;;;;;;;;;6.40;99.90;;;;;;5090086;28;19932;-78
2022/11/24 01:27:25;;;;;;;;;;;6.40;99.90;;;;;;5072731;28;19924;-78
2022/11/24 01:29:50;;;;;;;;;;;6.40;99.90;;;;;;5089401;28;19924;-79
2022/11/24 01:32:16;;;;;;;;;;;6.40;99.90;;;;;;5089262;28;19931;-78
2022/11/24 01:34:41;;;;;;;;;;;6.30;99.90;;;;;;5090277;28;20037;-79
2022/11/24 01:37:07;;;;;;;;;;;6.30;99.90;;;;;;5074558;28;19928;-78
2022/11/24 01:39:32;;;;;;;;;;;6.40;99.90;;;;;;5093600;28;20463;-79
2022/11/24 01:42:01;;;;;;;;;;;6.50;99.90;;;;;;5093624;28;20697;-78
2022/11/24 01:44:28;;;;;;;;;;;6.60;99.90;;;;;;5092855;28;19970;-78
2022/11/24 01:46:57;;;;;;;;;;;6.70;99.90;;;;;;5078117;28;19924;-78
2022/11/24 01:49:26;;;;;;;;;;;6.70;99.90;;;;;;5092447;28;19939;-78
2022/11/24 01:52:07;;;;;;;;;;;6.80;99.90;;;;;;5093424;28;20322;-79
2022/11/24 01:54:36;;;;;;;;;;;6.80;99.90;;;;;;5092742;28;19981;-78
2022/11/24 01:57:05;;;;;;;;;;;6.80;99.90;;;;;;5075682;28;20520;-78
2022/11/24 01:59:31;;;;;;;;;;;6.80;99.90;;;;;;5092658;28;19924;-79
2022/11/24 02:01:57;;;;;;;;;;;6.90;99.90;;;;;;5093041;28;19931;-78
2022/11/24 02:04:26;;;;;;;;;;;6.80;99.90;;;;;;5092040;28;20022;-78
2022/11/24 02:06:52;;;;;;;;;;;6.90;99.90;;;;;;5077644;28;19981;-78
2022/11/24 02:09:18;;;;;;;;;;;6.90;99.90;;;;;;5092252;28;19974;-78
2022/11/24 02:11:45;;;;;;;;;;;6.80;99.90;;;;;;5093427;28;19998;-79
2022/11/24 02:14:12;;;;;;;;;;;6.80;99.90;;;;;;5092305;28;19924;-77
2022/11/24 02:16:39;;;;;;;;;;;6.90;99.90;;;;;;5078517;28;19963;-77
2022/11/24 02:19:10;;;;;;;;;;;6.80;99.90;;;;;;5090768;28;19924;-78
2022/11/24 02:21:36;;;;;;;;;;;6.80;99.90;;;;;;5093093;28;20072;-77
2022/11/24 02:24:01;;;;;;;;;;;6.90;99.90;;;;;;5091893;28;20039;-78
2022/11/24 02:26:44;;;;;;;;;;;6.80;99.90;;;;;;5080324;28;19924;-78
2022/11/24 02:29:10;;;;;;;;;;;6.70;99.90;;;;;;5091993;28;19931;-78
2022/11/24 02:31:36;;;;;;;;;;;6.90;99.90;;;;;;5092865;28;19924;-78
2022/11/24 02:34:02;;;;;;;;;;;6.70;99.90;;;;;;5091819;28;19948;-78
2022/11/24 02:36:27;;;;;;;;;;;6.70;99.90;;;;;;5080198;28;19975;-78
2022/11/24 02:38:53;;;;;;;;;;;6.70;99.90;;;;;;5089478;28;19924;-78
2022/11/24 02:41:20;;;;;;;;;;;6.70;99.90;;;;;;5091717;28;20017;-77
2022/11/24 02:43:47;;;;;;;;;;;6.60;99.90;;;;;;5091773;28;19927;-78
2022/11/24 02:46:13;;;;;;;;;;;6.60;99.90;;;;;;5083325;28;20400;-78
2022/11/24 02:48:38;;;;;;;;;;;6.50;99.90;;;;;;5085372;28;20003;-78
2022/11/24 02:51:04;;;;;;;;;;;6.50;99.90;;;;;;5092121;28;19990;-78
2022/11/24 02:53:30;;;;;;;;;;;6.50;99.90;;;;;;5090925;28;19924;-78
2022/11/24 02:55:55;;;;;;;;;;;6.40;99.90;;;;;;5092133;28;19924;-78
2022/11/24 02:58:21;;;;;;;;;;;6.30;99.90;;;;;;5075805;28;19931;-80
2022/11/24 03:00:47;;;;;;;;;;;6.40;99.90;;;;;;5092103;28;19934;-78
2022/11/24 03:03:12;;;;;;;;;;;6.40;99.90;;;;;;5091249;28;19934;-79
2022/11/24 03:05:38;;;;;;;;;;;6.40;99.90;;;;;;5091672;28;19924;-78
2022/11/24 03:08:04;;;;;;;;;;;6.40;99.90;;;;;;5075387;28;19924;-78
2022/11/24 03:10:29;;;;;;;;;;;6.40;99.90;;;;;;5092480;28;20374;-78
2022/11/24 03:12:55;;;;;;;;;;;6.40;99.90;;;;;;5091014;28;19924;-78
2022/11/24 03:15:22;;;;;;;;;;;6.40;99.90;;;;;;5091073;28;19925;-78
2022/11/24 03:17:48;;;;;;;;;;;6.40;99.90;;;;;;5075581;28;19924;-78
2022/11/24 03:20:14;;;;;;;;;;;6.40;99.90;;;;;;5090919;28;20266;-78
2022/11/24 03:22:40;;;;;;;;;;;6.40;99.90;;;;;;5091187;28;20367;-78
2022/11/24 03:25:06;;;;;;;;;;;6.40;99.90;;;;;;5091913;28;19924;-78
2022/11/24 03:27:31;;;;;;;;;;;6.50;99.90;;;;;;5074383;28;20011;-79
2022/11/24 03:29:57;;;;;;;;;;;6.50;99.90;;;;;;5091645;28;20366;-78
2022/11/24 03:32:22;;;;;;;;;;;6.50;99.90;;;;;;5089642;28;19939;-78
2022/11/24 03:34:48;;;;;;;;;;;6.50;99.90;;;;;;5091101;28;19950;-78
2022/11/24 03:37:14;;;;;;;;;;;6.40;99.90;;;;;;5076006;28;19927;-78
2022/11/24 03:39:39;;;;;;;;;;;6.40;99.90;;;;;;5090560;28;20022;-78
2022/11/24 03:42:05;;;;;;;;;;;6.50;99.90;;;;;;5090724;28;19931;-78
2022/11/24 03:44:30;;;;;;;;;;;6.40;99.90;;;;;;5090145;28;20026;-78
2022/11/24 03:46:56;;;;;;;;;;;6.30;99.90;;;;;;5075885;28;20405;-78
2022/11/24 03:49:21;;;;;;;;;;;6.30;99.90;;;;;;5090498;28;19931;-78
2022/11/24 03:51:47;;;;;;;;;;;6.40;99.90;;;;;;5091336;28;19924;-78
2022/11/24 03:54:13;;;;;;;;;;;6.50;99.90;;;;;;5090545;28;19976;-78
2022/11/24 03:56:38;;;;;;;;;;;6.40;99.90;;;;;;5077217;28;19959;-78
2022/11/24 03:59:04;;;;;;;;;;;6.40;99.90;;;;;;5087816;28;20388;-79
2022/11/24 04:01:30;;;;;;;;;;;6.40;99.90;;;;;;5089987;28;20397;-78
2022/11/24 04:03:55;;;;;;;;;;;6.40;99.90;;;;;;5088544;28;19924;-78
2022/11/24 04:06:21;;;;;;;;;;;6.30;99.90;;;;;;5079720;28;20617;-80
2022/11/24 04:08:46;;;;;;;;;;;6.20;99.90;;;;;;5086106;28;19935;-78
2022/11/24 04:12:42;;;;;;;;;;;6.30;99.90;;;;;;5089408;28;19928;-78
2022/11/24 04:13:57;;;;;;;;;;;6.30;99.90;;;;;;5069648;28;19925;-78
2022/11/24 04:16:23;;;;;;;;;;;6.30;99.90;;;;;;5058159;28;19925;-79
2022/11/24 04:18:50;;;;;;;;;;;6.40;99.90;;;;;;5066331;28;19928;-79
2022/11/24 04:21:16;;;;;;;;;;;6.30;99.90;;;;;;5087821;28;19924;-78
2022/11/24 04:23:41;;;;;;;;;;;6.30;99.90;;;;;;5089507;28;19931;-78
2022/11/24 04:26:07;;;;;;;;;;;6.40;99.90;;;;;;5085728;28;19930;-79
2022/11/24 04:28:33;;;;;;;;;;;6.50;99.90;;;;;;5080746;28;19979;-78
2022/11/24 04:31:01;;;;;;;;;;;6.30;99.90;;;;;;5090827;28;20366;-78
2022/11/24 04:33:27;;;;;;;;;;;6.40;99.90;;;;;;5089714;28;19928;-78
2022/11/24 04:35:52;;;;;;;;;;;6.30;99.90;;;;;;5090223;28;20293;-78
2022/11/24 04:38:18;;;;;;;;;;;6.50;99.90;;;;;;5074333;28;20023;-78
2022/11/24 04:40:43;;;;;;;;;;;6.40;99.90;;;;;;5090451;28;20021;-78
2022/11/24 04:43:09;;;;;;;;;;;6.40;99.90;;;;;;5089863;28;19969;-78
2022/11/24 04:45:35;;;;;;;;;;;6.40;99.90;;;;;;5090889;28;19924;-78
2022/11/24 04:48:00;;;;;;;;;;;6.40;99.90;;;;;;5073973;28;20026;-78
2022/11/24 04:50:26;;;;;;;;;;;6.40;99.90;;;;;;5085366;28;19933;-78
2022/11/24 04:52:51;;;;;;;;;;;6.30;99.90;;;;;;5076943;28;20262;-78
2022/11/24 04:55:17;;;;;;;;;;;6.40;99.90;;;;;;5080482;28;19936;-79
2022/11/24 04:57:42;;;;;;;;;;;6.30;99.90;;;;;;5063545;28;20345;-78
2022/11/24 05:00:09;;;;;;;;;;;6.20;99.90;;;;;;5089703;28;19969;-78
2022/11/24 05:02:35;;;;;;;;;;;6.10;99.90;;;;;;5088916;28;19924;-78
2022/11/24 05:05:00;;;;;;;;;;;6.00;99.90;;;;;;5106013;28;19957;-78
2022/11/24 05:07:26;;;;;;;;;;;6.00;99.90;;;;;;5070658;28;19928;-78
2022/11/24 05:12:36;;;;;;;;;;;6.00;99.90;;;;;;5083475;28;19930;-79
2022/11/24 05:15:02;;;;;;;;;;;6.00;99.90;;;;;;5078945;28;19955;-79
2022/11/24 05:17:29;;;;;;;;;;;6.00;99.90;;;;;;5074529;28;19950;-79
2022/11/24 05:19:55;;;;;;;;;;;6.00;99.90;;;;;;5093454;28;20281;-79
2022/11/24 05:22:20;;;;;;;;;;;5.80;99.90;;;;;;5093496;28;19932;-78
2022/11/24 05:24:46;;;;;;;;;;;5.90;99.90;;;;;;5093541;28;19924;-78
2022/11/24 05:27:11;;;;;;;;;;;5.80;99.90;;;;;;5077152;28;19932;-78
2022/11/24 05:29:37;;;;;;;;;;;5.80;99.90;;;;;;5093670;28;19924;-79
2022/11/24 05:32:03;;;;;;;;;;;5.90;99.90;;;;;;5093589;28;20313;-73
2022/11/24 05:34:32;;;;;;;;;;;5.90;99.90;;;;;;5091746;28;20401;-78
2022/11/24 05:37:01;;;;;;;;;;;5.90;99.90;;;;;;5078148;28;19947;-79
2022/11/24 05:39:28;;;;;;;;;;;5.90;99.90;;;;;;5080507;28;19943;-79
2022/11/24 05:41:54;;;;;;;;;;;5.90;99.90;;;;;;5070695;28;20007;-78
2022/11/24 05:44:19;;;;;;;;;;;5.90;99.90;;;;;;5083622;28;20405;-79
2022/11/24 05:46:45;;;;;;;;;;;6.00;99.90;;;;;;5057661;28;19935;-78
2022/11/24 05:49:10;;;;;;;;;;;6.00;99.90;;;;;;5084002;28;19932;-78
2022/11/24 05:51:36;;;;;;;;;;;5.90;99.90;;;;;;5093521;28;19976;-78
2022/11/24 05:54:01;;;;;;;;;;;6.00;99.90;;;;;;5091828;28;20019;-78
2022/11/24 05:56:27;;;;;;;;;;;5.90;99.90;;;;;;5069145;28;19970;-78
2022/11/24 05:58:52;;;;;;;;;;;5.90;99.90;;;;;;5065901;28;20168;-78
2022/11/24 06:01:18;;;;;;;;;;;5.70;99.90;;;;;;5084151;28;19928;-78
2022/11/24 06:03:43;;;;;;;;;;;5.80;99.90;;;;;;5070685;28;19936;-78
2022/11/24 06:06:09;;;;;;;;;;;5.90;99.90;;;;;;5083487;28;20377;-80
2022/11/24 06:08:35;;;;;;;;;;;5.70;99.90;;;;;;5070913;28;19932;-78
2022/11/24 06:11:19;;;;;;;;;;;5.80;99.90;;;;;;5104100;27;19929;-79
2022/11/24 06:13:45;;;;;;;;;;;5.80;99.90;;;;;;5069793;28;20011;-79
2022/11/24 06:16:11;;;;;;;;;;;5.80;99.90;;;;;;5067121;28;20307;-79
2022/11/24 06:18:37;;;;;;;;;;;5.80;99.90;;;;;;5082666;28;20049;-79
2022/11/24 06:21:03;;;;;;;;;;;5.80;99.90;;;;;;5091693;28;19939;-79
2022/11/24 06:23:28;;;;;;;;;;;5.80;99.90;;;;;;5087103;28;19963;-78
2022/11/24 06:25:56;;;;;;;;;;;5.90;99.90;;;;;;5076914;28;19928;-78
2022/11/24 06:28:21;;;;;;;;;;;5.70;99.90;;;;;;5071331;28;19928;-79
2022/11/24 06:30:47;;;;;;;;;;;5.70;99.90;;;;;;5076614;28;19925;-78
2022/11/24 06:33:13;;;;;;;;;;;5.80;99.90;;;;;;5080703;28;20347;-78
2022/11/24 06:35:38;;;;;;;;;;;5.80;99.90;;;;;;5080502;28;19952;-78
2022/11/24 06:38:04;;;;;;;;;;;5.80;99.90;;;;;;5054028;28;19935;-78
2022/11/24 06:40:29;;;;;;;;;;;5.60;99.90;;;;;;5070438;28;19981;-78
2022/11/24 06:42:55;;;;;;;;;;;5.60;99.90;;;;;;5081105;28;19971;-79
2022/11/24 06:45:22;;;;;;;;;;;5.50;99.90;;;;;;5070101;28;19929;-79
2022/11/24 06:47:47;;;;;;;;;;;5.40;99.90;;;;;;5055739;28;19947;-78
2022/11/24 06:50:13;;;;;;;;;;;5.50;99.90;;;;;;5082317;28;20370;-78
2022/11/24 06:52:39;;;;;;;;;;;5.60;99.90;;;;;;5091554;28;20007;-78
2022/11/24 06:55:04;;;;;;;;;;;5.50;99.90;;;;;;5091916;28;19969;-78
2022/11/24 06:57:31;;;;;;;;;;;5.40;99.90;;;;;;5075108;28;19924;-80
2022/11/24 06:59:57;;;;;;;;;;;5.60;99.90;;;;;;5091868;28;19928;-78
2022/11/24 07:02:23;;;;;;;;;;;5.50;99.90;;;;;;5091411;28;19932;-79
2022/11/24 07:04:48;;;;;;;;;;;5.50;99.90;;;;;;5092207;28;19924;-78
2022/11/24 07:07:14;;;;;;;;;;;5.50;99.90;;;;;;5075953;28;19924;-78
2022/11/24 07:09:39;;;;;;;;;;;5.50;99.90;;;;;;5091291;28;19979;-78
2022/11/24 07:12:05;;;;;;;;;;;5.50;99.90;;;;;;5090360;28;19936;-78
2022/11/24 07:14:30;;;;;;;;;;;5.50;99.90;;;;;;5091376;28;20034;-78
2022/11/24 07:16:56;;;;;;;;;;;5.40;99.90;;;;;;5075542;28;20377;-78
2022/11/24 07:19:21;;;;;;;;;;;5.50;99.90;;;;;;5090829;28;19928;-78
2022/11/24 07:21:47;;;;;;;;;;;5.70;99.90;;;;;;5091513;28;19924;-78
2022/11/24 07:24:12;;;;;;;;;;;5.60;99.90;;;;;;5090402;28;19935;-78
2022/11/24 07:26:38;;;;;;;;;;;5.60;99.90;;;;;;5076439;28;19924;-78
2022/11/24 07:29:04;;;;;;;;;;;5.60;99.90;;;;;;5088488;28;20015;-78
2022/11/24 07:31:30;;;;;;;;;;;5.60;99.90;;;;;;5089552;28;20046;-78
2022/11/24 07:33:56;;;;;;;;;;;5.60;99.90;;;;;;5089437;28;19924;-78
2022/11/24 07:36:24;;;;;;;;;;;5.60;99.90;;;;;;5075577;28;19924;-79
2022/11/24 07:38:49;;;;;;;;;;;5.60;99.90;;;;;;5112713;27;19931;-79
2022/11/24 07:41:18;;;;;;;;;;;5.80;99.90;;;;;;5090763;28;19924;-79
2022/11/24 07:43:44;;;;;;;;;;;5.70;99.90;;;;;;5071300;28;19932;-78
2022/11/24 07:46:11;;;;;;;;;;;5.70;99.90;;;;;;5082638;28;19931;-80
2022/11/24 07:48:36;;;;;;;;;;;5.70;99.90;;;;;;5081665;28;19979;-79
2022/11/24 07:51:03;;;;;;;;;;;5.80;99.90;;;;;;5090898;28;19959;-78
2022/11/24 07:53:29;;;;;;;;;;;5.90;99.90;;;;;;5088912;28;19924;-79
2022/11/24 07:55:55;;;;;;;;;;;5.90;99.90;;;;;;5090551;28;19924;-78
2022/11/24 07:58:21;;;;;;;;;;;5.90;99.90;;;;;;5074428;28;19931;-78
2022/11/24 08:00:47;;;;;;;;;;;5.90;99.90;;;;;;5090630;28;19924;-78
2022/11/24 08:03:13;;;;;;;;;;;5.90;99.90;;;;;;5088737;28;19955;-78
2022/11/24 08:05:38;;;;;;;;;;;6.00;99.90;;;;;;5090814;28;19928;-78
2022/11/24 08:08:04;;;;;;;;;;;6.10;99.90;;;;;;5074595;28;20277;-78
2022/11/24 08:10:29;;;;;;;;;;;6.10;99.90;;;;;;5086793;28;20285;-78
2022/11/24 08:12:58;;;;;;;;;;;6.20;99.90;;;;;;5082216;28;19928;-78
2022/11/24 08:15:24;;;;;;;;;;;6.20;99.90;;;;;;5088184;28;19924;-79
2022/11/24 08:17:50;;;;;;;;;;;6.30;99.90;;;;;;5061277;28;19924;-79
2022/11/24 08:20:15;;;;;;;;;;;6.20;99.90;;;;;;5078449;28;19940;-78
2022/11/24 08:22:41;;;;;;;;;;;6.20;99.90;;;;;;5076909;28;19932;-78
2022/11/24 08:25:07;;;;;;;;;;;6.20;99.90;;;;;;5077937;28;20058;-79
2022/11/24 08:27:32;;;;;;;;;;;6.30;99.90;;;;;;5076973;28;19995;-79
2022/11/24 08:29:58;;;;;;;;;;;6.30;99.90;;;;;;5077873;28;20378;-79
2022/11/24 08:32:23;;;;;;;;;;;6.30;99.90;;;;;;5076905;28;19959;-79
2022/11/24 08:34:49;;;;;;;;;;;6.30;99.90;;;;;;5078457;28;20283;-79
2022/11/24 08:37:14;;;;;;;;;;;6.40;99.90;;;;;;5062908;28;20030;-79
2022/11/24 08:39:40;;;;;;;;;;;6.50;99.90;;;;;;5078889;28;19928;-79
2022/11/24 08:42:06;;;;;;;;;;;6.70;99.90;;;;;;5076093;28;19932;-79
2022/11/24 08:44:31;;;;;;;;;;;6.80;99.90;;;;;;5078056;28;19932;-79
2022/11/24 08:46:57;;;;;;;;;;;6.80;99.90;;;;;;5060625;28;19924;-79
2022/11/24 08:49:22;;;;;;;;;;;6.80;99.90;;;;;;5077198;28;20038;-80
2022/11/24 08:51:50;;;;;;;;;;;6.90;99.90;;;;;;5076633;28;19924;-80
2022/11/24 08:54:17;;;;;;;;;;;6.90;99.90;;;;;;5078016;28;20026;-78
2022/11/24 08:56:43;;;;;;;;;;;6.90;99.90;;;;;;5061957;28;20305;-80
2022/11/24 08:59:11;;;;;;;;;;;6.90;99.90;;;;;;5077682;28;19973;-78
2022/11/24 09:01:36;;;;;;;;;;;6.80;99.90;;;;;;5077337;28;19939;-78
2022/11/24 09:04:02;;;;;;;;;;;6.80;99.90;;;;;;5076784;28;19932;-78
2022/11/24 09:06:29;;;;;;;;;;;6.80;99.90;;;;;;5064397;28;20621;-78
2022/11/24 09:08:55;;;;;;;;;;;6.80;99.90;;;;;;5073220;28;19932;-79
2022/11/24 09:11:21;;;;;;;;;;;6.80;99.90;;;;;;5077529;28;19939;-79
2022/11/24 09:13:46;;;;;;;;;;;6.70;99.90;;;;;;5092576;28;20518;-79
2022/11/24 09:16:13;;;;;;;;;;;6.90;99.90;;;;;;5069998;28;19950;-79
2022/11/24 09:18:39;;;;;;;;;;;6.80;99.90;;;;;;5070873;28;20021;-79
2022/11/24 09:21:10;;;;;;;;;;;7.00;99.90;;;;;;5077611;28;19946;-78
2022/11/24 09:23:36;;;;;;;;;;;7.00;99.90;;;;;;5076554;28;20409;-79
2022/11/24 09:26:12;;;;;;;;;;;7.10;99.90;;;;;;5076244;28;19949;-80
2022/11/24 09:28:37;;;;;;;;;;;7.10;99.90;;;;;;5085615;28;19991;-79
2022/11/24 09:31:04;;;;;;;;;;;7.30;99.90;;;;;;5077419;28;19980;-79
2022/11/24 09:33:30;;;;;;;;;;;7.30;99.90;;;;;;5076460;28;20089;-79
2022/11/24 09:35:56;;;;;;;;;;;7.40;99.90;;;;;;5076759;28;20369;-79
2022/11/24 09:38:22;;;;;;;;;;;7.50;99.90;;;;;;5062110;28;19978;-79
2022/11/24 09:40:48;;;;;;;;;;;7.60;99.90;;;;;;5077524;28;19932;-79
2022/11/24 09:43:19;;;;;;;;;;;7.70;99.90;;;;;;5076589;28;19932;-79
2022/11/24 09:45:51;;;;;;;;;;;7.80;99.90;;;;;;5077083;28;20085;-79
2022/11/24 09:48:27;;;;;;;;;;;7.80;99.90;;;;;;5092424;28;20246;-79
2022/11/24 09:50:55;;;;;;;;;;;7.90;99.90;;;;;;5077808;28;19932;-79
2022/11/24 09:53:35;;;;;;;;;;;8.00;99.90;;;;;;5072524;28;19975;-79
2022/11/24 09:56:13;;;;;;;;;;;8.40;99.90;;;;;;5074148;28;19932;-79
2022/11/24 09:58:38;;;;;;;;;;;8.70;99.90;;;;;;5069629;28;19940;-79
2022/11/24 10:01:08;;;;;;;;;;;8.70;99.90;;;;;;5077498;28;20559;-79
2022/11/24 10:03:37;;;;;;;;;;;8.80;99.90;;;;;;5079191;28;19925;-78
2022/11/24 10:06:09;;;;;;;;;;;8.80;99.90;;;;;;5080154;28;19932;-79
2022/11/24 10:08:37;;;;;;;;;;;9.00;99.90;;;;;;5072385;28;20391;-78
2022/11/24 10:11:08;;;;;;;;;;;9.10;99.90;;;;;;5080483;28;19975;-80
2022/11/24 10:13:45;;;;;;;;;;;9.20;99.90;;;;;;5078351;28;19932;-79
2022/11/24 10:16:14;;;;;;;;;;;9.20;99.90;;;;;;5072158;28;19967;-79
2022/11/24 10:18:42;;;;;;;;;;;9.20;99.90;;;;;;5072934;28;19932;-79
2022/11/24 10:21:26;;;;;;;;;;;9.40;99.90;;;;;;5080195;28;19936;-80
2022/11/24 10:24:21;;;;;;;;;;;9.60;99.90;;;;;;5079012;28;19951;-79
2022/11/24 10:26:50;;;;;;;;;;;9.80;99.90;;;;;;5045942;28;19985;-79
2022/11/24 10:29:29;;;;;;;;;;;9.80;99.90;;;;;;5078479;28;19931;-79
2022/11/24 10:31:55;;;;;;;;;;;10.10;99.90;;;;;;5079254;28;19932;-79
2022/11/24 10:34:26;;;;;;;;;;;10.10;99.90;;;;;;5077481;28;20387;-80
2022/11/24 10:36:57;;;;;;;;;;;10.00;99.90;;;;;;5064251;28;20989;-80
2022/11/24 10:39:31;;;;;;;;;;;10.10;99.90;;;;;;5079623;28;19955;-79
2022/11/24 10:41:59;;;;;;;;;;;10.20;99.90;;;;;;5080605;28;19985;-79
2022/11/24 10:44:24;;;;;;;;;;;10.20;99.90;;;;;;5079957;28;19946;-79
2022/11/24 10:46:51;;;;;;;;;;;10.20;99.90;;;;;;5064605;28;20381;-79
2022/11/24 10:49:22;;;;;;;;;;;10.30;99.90;;;;;;5079662;28;20395;-79
2022/11/24 10:52:04;;;;;;;;;;;10.30;99.90;;;;;;5112537;27;20408;-79
2022/11/24 10:54:30;;;;;;;;;;;10.60;99.90;;;;;;5079416;28;20599;-79
2022/11/24 10:56:56;;;;;;;;;;;11.10;99.90;;;;;;5062840;28;19932;-79
2022/11/24 10:59:28;;;;;;;;;;;11.40;99.90;;;;;;5079049;28;19932;-79
2022/11/24 11:01:53;;;;;;;;;;;11.50;99.90;;;;;;5079002;28;19932;-80
2022/11/24 11:04:25;;;;;;;;;;;11.50;99.90;;;;;;5079691;28;19939;-79
2022/11/24 11:06:51;;;;;;;;;;;11.70;99.90;;;;;;5064390;28;20358;-77
2022/11/24 11:09:20;;;;;;;;;;;11.90;99.90;;;;;;5078632;28;19932;-79
2022/11/24 11:11:48;;;;;;;;;;;12.00;99.90;;;;;;5078875;28;19959;-80
2022/11/24 11:14:31;;;;;;;;;;;12.20;99.90;;;;;;5077783;28;19932;-80
2022/11/24 11:16:56;;;;;;;;;;;12.20;99.90;;;;;;5065089;28;19971;-81
2022/11/24 11:19:31;;;;;;;;;;;12.50;99.90;;;;;;5078652;28;19970;-80
2022/11/24 11:22:15;;;;;;;;;;;12.10;99.90;;;;;;5079995;28;19959;-81
2022/11/24 11:24:42;;;;;;;;;;;12.10;99.90;;;;;;5079830;28;19928;-81
2022/11/24 11:27:24;;;;;;;;;;;12.20;99.90;;;;;;5062257;28;20317;-81
2022/11/24 11:29:50;;;;;;;;;;;12.60;99.90;;;;;;5079025;28;19932;-82
2022/11/24 11:32:23;;;;;;;;;;;12.50;99.90;;;;;;5078608;28;19932;-80
2022/11/24 11:34:50;;;;;;;;;;;12.20;99.90;;;;;;5079692;28;20377;-79
2022/11/24 11:37:16;;;;;;;;;;;12.20;99.90;;;;;;5067038;28;20297;-80
2022/11/24 11:39:50;;;;;;;;;;;11.90;99.90;;;;;;5079357;28;19933;-81
2022/11/24 11:42:15;;;;;;;;;;;11.60;99.90;;;;;;5077787;28;19928;-82
2022/11/24 11:44:45;;;;;;;;;;;11.30;99.90;;;;;;5078641;28;20348;-80
2022/11/24 11:47:32;;;;;;;;;;;11.00;99.90;;;;;;5063377;28;20014;-79
2022/11/24 11:49:58;;;;;;;;;;;10.80;99.90;;;;;;5079509;28;19954;-80
2022/11/24 11:52:33;;;;;;;;;;;10.70;99.90;;;;;;5077308;28;20456;-79
2022/11/24 11:54:59;;;;;;;;;;;10.90;99.90;;;;;;5077502;28;20549;-80
2022/11/24 11:57:45;;;;;;;;;;;11.00;99.90;;;;;;5062149;28;20109;-80
2022/11/24 12:00:17;;;;;;;;;;;11.00;99.90;;;;;;5078397;28;19932;-79
2022/11/24 12:02:45;;;;;;;;;;;11.00;99.90;;;;;;5078023;28;20019;-82
2022/11/24 12:05:11;;;;;;;;;;;11.00;99.90;;;;;;5078470;28;20433;-80
2022/11/24 12:07:39;;;;;;;;;;;10.80;99.90;;;;;;5061787;28;20286;-79
2022/11/24 12:10:08;;;;;;;;;;;11.00;99.90;;;;;;5077629;28;20361;-80
2022/11/24 12:12:36;;;;;;;;;;;10.80;99.90;;;;;;5077299;28;19959;-79
2022/11/24 12:15:11;;;;;;;;;;;10.70;99.90;;;;;;5077856;28;20353;-82
2022/11/24 12:17:41;;;;;;;;;;;10.70;99.90;;;;;;5061617;28;20302;-80
2022/11/24 12:20:06;;;;;;;;;;;10.70;99.90;;;;;;5077982;28;19950;-81
2022/11/24 12:22:40;;;;;;;;;;;10.70;99.90;;;;;;5076943;28;19932;-81
2022/11/24 12:25:22;;;;;;;;;;;10.80;99.90;;;;;;5077431;28;19931;-79
2022/11/24 12:28:04;;;;;;;;;;;11.00;99.90;;;;;;5060524;28;19924;-81
2022/11/24 12:30:42;;;;;;;;;;;11.40;99.90;;;;;;5078038;28;20062;-80
2022/11/24 12:33:30;;;;;;;;;;;11.50;99.90;;;;;;5076206;28;19932;-82
2022/11/24 12:36:15;;;;;;;;;;;11.60;99.90;;;;;;5078144;28;19930;-80
2022/11/24 12:38:47;;;;;;;;;;;11.80;99.90;;;;;;5053983;28;19924;-80
2022/11/24 12:41:30;;;;;;;;;;;12.10;99.90;;;;;;5077830;28;19932;-81
2022/11/24 12:43:56;;;;;;;;;;;12.30;99.90;;;;;;5076989;28;20317;-80
2022/11/24 12:46:25;;;;;;;;;;;12.10;99.90;;;;;;5065172;28;20377;-77
2022/11/24 12:49:00;;;;;;;;;;;12.00;99.90;;;;;;5068913;28;20307;-79
2022/11/24 12:51:34;;;;;;;;;;;11.90;99.90;;;;;;5076991;28;19932;-79
2022/11/24 12:54:04;;;;;;;;;;;11.80;99.90;;;;;;5073258;28;20047;-79
2022/11/24 12:56:52;;;;;;;;;;;11.50;99.90;;;;;;5059900;28;20219;-80
2022/11/24 12:59:44;;;;;;;;;;;11.20;99.90;;;;;;5091050;28;19932;-80
2022/11/24 13:02:15;;;;;;;;;;;11.00;99.90;;;;;;5076543;28;19932;-80
2022/11/24 13:05:04;;;;;;;;;;;10.90;99.90;;;;;;5077551;28;19987;-79
2022/11/24 13:07:38;;;;;;;;;;;10.90;99.90;;;;;;5050488;28;19932;-81
2022/11/24 13:10:22;;;;;;;;;;;10.80;99.90;;;;;;5075378;28;19978;-79
2022/11/24 13:12:55;;;;;;;;;;;10.60;99.90;;;;;;5076026;28;19935;-79
2022/11/24 13:15:21;;;;;;;;;;;10.50;99.90;;;;;;5073986;28;19973;-80
2022/11/24 13:17:46;;;;;;;;;;;10.50;99.90;;;;;;5060376;28;20585;-79
2022/11/24 13:20:13;;;;;;;;;;;10.50;99.90;;;;;;5077289;28;19932;-81
2022/11/24 13:22:44;;;;;;;;;;;10.50;99.90;;;;;;5076787;28;19928;-79
2022/11/24 13:25:21;;;;;;;;;;;10.50;99.90;;;;;;5077506;28;19980;-79
2022/11/24 13:27:47;;;;;;;;;;;10.50;99.90;;;;;;5061325;28;19932;-80
2022/11/24 13:30:31;;;;;;;;;;;10.50;99.90;;;;;;5077509;28;20486;-79
2022/11/24 13:33:00;;;;;;;;;;;10.40;99.90;;;;;;5076114;28;19932;-80
2022/11/24 13:35:26;;;;;;;;;;;10.40;99.90;;;;;;5081459;28;20681;-79
2022/11/24 13:37:52;;;;;;;;;;;10.50;99.90;;;;;;5066010;28;19939;-79
2022/11/24 13:40:21;;;;;;;;;;;10.40;99.90;;;;;;5081212;28;20069;-80
2022/11/24 13:43:04;;;;;;;;;;;10.30;99.90;;;;;;5079743;28;19967;-79
2022/11/24 13:45:40;;;;;;;;;;;10.30;99.90;;;;;;5080296;28;19924;-79
2022/11/24 13:48:17;;;;;;;;;;;10.20;99.90;;;;;;5064618;28;19932;-79
2022/11/24 13:50:49;;;;;;;;;;;10.20;99.90;;;;;;5081475;28;19932;-80
2022/11/24 13:53:27;;;;;;;;;;;10.20;99.90;;;;;;5080139;28;20297;-79
2022/11/24 13:55:57;;;;;;;;;;;10.10;99.90;;;;;;5081211;28;19932;-80
2022/11/24 13:58:29;;;;;;;;;;;10.00;99.90;;;;;;5064743;28;19954;-80
2022/11/24 14:01:21;;;;;;;;;;;10.00;99.90;;;;;;5080424;28;19932;-80
2022/11/24 14:03:55;;;;;;;;;;;10.00;99.90;;;;;;5048545;28;19932;-79
2022/11/24 14:06:35;;;;;;;;;;;10.00;99.90;;;;;;5069707;28;20318;-80
2022/11/24 14:09:05;;;;;;;;;;;9.90;99.90;;;;;;5078057;28;19932;-80
2022/11/24 14:11:31;;;;;;;;;;;10.00;99.90;;;;;;5080966;28;19932;-81
2022/11/24 14:13:56;;;;;;;;;;;9.90;99.90;;;;;;5080632;28;20048;-79
2022/11/24 14:16:23;;;;;;;;;;;9.90;99.90;;;;;;5055596;28;19939;-79
2022/11/24 14:18:49;;;;;;;;;;;9.80;99.90;;;;;;5076174;28;19932;-81
2022/11/24 14:21:24;;;;;;;;;;;9.70;99.90;;;;;;5079677;28;19982;-78
2022/11/24 14:23:57;;;;;;;;;;;9.70;99.90;;;;;;5079052;28;19932;-79
2022/11/24 14:26:25;;;;;;;;;;;9.70;99.90;;;;;;5061325;28;20062;-79
2022/11/24 14:28:52;;;;;;;;;;;9.60;99.90;;;;;;5072014;28;19967;-79
2022/11/24 14:31:20;;;;;;;;;;;9.60;99.90;;;;;;5076601;28;19932;-79
2022/11/24 14:33:45;;;;;;;;;;;9.60;99.90;;;;;;5074834;28;20371;-80
2022/11/24 14:36:14;;;;;;;;;;;9.50;99.90;;;;;;5069440;28;20464;-81